METAR Data
IDs: Format: Raw Decoded Include TAF

Data at: 2050 UTC 13 Nov 2019

METAR for:KMIW (Marshalltown Muni, IA, US)
Text:KMIW 132040Z AUTO 25006KT 1 1/4SM -SN BR SCT023 OVC040 M03/M04 A2996 RMK AO2 SNB1958 P0001 T10331044
Temperature: -3.3°C ( 26°F)
Dewpoint: -4.4°C ( 24°F) [RH = 92%]
Pressure (altimeter):29.96 inches Hg (1014.6 mb)
Winds:from the WSW (250 degrees) at 7 MPH (6 knots; 3.1 m/s)
Visibility: 1.25 sm ( 2.01 km)
Ceiling:4000 feet AGL
Clouds: scattered clouds at 2300 feet AGL, overcast cloud deck at 4000 feet AGL
Weather:-SN BR (light snow, mist)
QC Flag:automated observation with no human augmentation